createdAt,value
2023-02-12T00:00:50.058Z,87.12
2023-02-12T00:03:16.715Z,87.00
2023-02-12T00:05:43.299Z,87.66
2023-02-12T00:08:09.942Z,87.05
2023-02-12T00:10:39.585Z,87.06
2023-02-12T00:13:06.123Z,87.38
2023-02-12T00:15:32.658Z,87.21
2023-02-12T00:17:59.231Z,87.33
2023-02-12T00:20:25.742Z,87.43
2023-02-12T00:22:52.255Z,86.96
2023-02-12T00:25:19.147Z,87.32
2023-02-12T00:27:45.671Z,87.28
2023-02-12T00:30:12.520Z,87.35
2023-02-12T00:32:39.039Z,88.02
2023-02-12T00:35:05.747Z,87.65
2023-02-12T00:37:32.310Z,88.02
2023-02-12T00:39:58.859Z,88.37
2023-02-12T00:42:25.379Z,88.41
2023-02-12T00:44:51.891Z,88.57
2023-02-12T00:47:18.368Z,88.17
2023-02-12T00:49:44.889Z,87.25
2023-02-12T00:52:11.447Z,88.85
2023-02-12T00:54:38.278Z,89.34
2023-02-12T00:57:04.836Z,88.09
2023-02-12T00:59:31.441Z,88.38
2023-02-12T01:01:58.129Z,88.39
2023-02-12T01:04:24.713Z,88.87
2023-02-12T01:06:51.237Z,88.89
2023-02-12T01:09:17.736Z,88.46
2023-02-12T01:11:44.311Z,88.80
2023-02-12T01:14:10.816Z,88.42
2023-02-12T01:16:37.438Z,88.40
2023-02-12T01:19:04.098Z,89.18
2023-02-12T01:21:31.874Z,88.61
2023-02-12T01:23:58.457Z,88.58
2023-02-12T01:26:25.383Z,89.01
2023-02-12T01:28:56.816Z,88.94
2023-02-12T01:31:25.554Z,89.43
2023-02-12T01:33:53.306Z,88.80
2023-02-12T01:36:19.961Z,87.99
2023-02-12T01:38:47.369Z,88.83
2023-02-12T01:41:21.420Z,89.53
2023-02-12T01:44:06.426Z,88.82
2023-02-12T01:46:33.041Z,89.07
2023-02-12T01:48:59.608Z,89.05
2023-02-12T01:51:26.139Z,89.24
2023-02-12T01:53:53.903Z,89.18
2023-02-12T01:56:20.599Z,88.81
2023-02-12T01:58:47.396Z,89.24
2023-02-12T02:01:20.418Z,87.99
2023-02-12T02:03:50.350Z,88.46
2023-02-12T02:06:20.186Z,88.71
2023-02-12T02:08:46.762Z,89.24
2023-02-12T02:11:13.538Z,89.34
2023-02-12T02:13:40.070Z,89.81
2023-02-12T02:16:24.455Z,89.67
2023-02-12T02:18:54.842Z,88.94
2023-02-12T02:21:35.909Z,89.49
2023-02-12T02:24:24.010Z,89.36
2023-02-12T02:27:02.162Z,88.83
2023-02-12T02:29:28.571Z,88.83
2023-02-12T02:32:12.722Z,89.89
2023-02-12T02:34:50.435Z,89.90
2023-02-12T02:37:31.766Z,89.51
2023-02-12T02:40:00.997Z,90.58
2023-02-12T02:42:37.293Z,91.36
2023-02-12T02:45:32.738Z,91.18
2023-02-12T02:48:04.648Z,90.28
2023-02-12T02:50:31.671Z,90.63
2023-02-12T02:53:07.134Z,90.84
2023-02-12T02:55:36.782Z,90.45
2023-02-12T02:58:09.587Z,90.59
2023-02-12T03:00:38.617Z,89.95
2023-02-12T03:03:30.459Z,91.79
2023-02-12T03:06:01.148Z,91.78
2023-02-12T03:08:30.100Z,91.64
2023-02-12T03:10:58.756Z,91.35
2023-02-12T03:14:02.052Z,91.69
2023-02-12T03:16:33.758Z,93.15
2023-02-12T03:19:14.329Z,92.93
2023-02-12T03:21:46.380Z,93.57
2023-02-12T03:24:22.776Z,92.89
2023-02-12T03:27:03.347Z,93.05
2023-02-12T03:29:30.138Z,93.87
2023-02-12T03:32:17.704Z,94.99
2023-02-12T03:35:10.320Z,95.10
2023-02-12T03:37:58.308Z,95.50
2023-02-12T03:40:37.145Z,96.76
2023-02-12T03:43:25.238Z,95.89
2023-02-12T03:46:07.688Z,96.18
2023-02-12T03:48:54.896Z,95.82
2023-02-12T03:51:22.590Z,96.10
2023-02-12T03:53:49.279Z,96.50
2023-02-12T03:56:20.135Z,95.99
2023-02-12T03:58:46.753Z,96.20
2023-02-12T04:01:13.364Z,96.79
2023-02-12T04:03:39.994Z,96.69
2023-02-12T04:06:19.786Z,97.02
2023-02-12T04:08:46.395Z,97.04
2023-02-12T04:11:21.871Z,96.83
2023-02-12T04:14:07.243Z,97.06
2023-02-12T04:16:50.281Z,96.90
2023-02-12T04:19:20.381Z,97.53
2023-02-12T04:22:05.074Z,97.83
2023-02-12T04:24:50.076Z,97.95
2023-02-12T04:27:24.553Z,98.07
2023-02-12T04:30:12.897Z,98.66
2023-02-12T04:32:59.710Z,98.56
2023-02-12T04:35:49.232Z,98.02
2023-02-12T04:38:27.395Z,98.94
2023-02-12T04:40:53.913Z,99.22
2023-02-12T04:43:30.573Z,99.59
2023-02-12T04:45:57.537Z,99.24
2023-02-12T04:48:24.253Z,99.60
2023-02-12T04:50:50.785Z,100.00
2023-02-12T04:53:17.539Z,100.00
2023-02-12T04:55:44.138Z,100.00
2023-02-12T04:58:10.649Z,100.00
2023-02-12T05:00:37.197Z,100.00
2023-02-12T05:03:03.794Z,100.00
2023-02-12T05:05:30.320Z,100.00
2023-02-12T05:07:57.182Z,100.00
2023-02-12T05:10:23.740Z,100.00
2023-02-12T05:12:52.618Z,100.00
2023-02-12T05:15:19.171Z,99.81
2023-02-12T05:17:45.643Z,100.00
2023-02-12T05:20:12.692Z,100.00
2023-02-12T05:22:39.238Z,100.00
2023-02-12T05:25:06.164Z,100.00
2023-02-12T05:27:32.702Z,100.00
2023-02-12T05:29:59.220Z,100.00
2023-02-12T05:32:25.771Z,100.00
2023-02-12T05:34:52.279Z,100.00
2023-02-12T05:37:18.783Z,100.00
2023-02-12T05:39:45.310Z,100.00
2023-02-12T05:42:11.807Z,100.00
2023-02-12T05:44:38.422Z,100.00
2023-02-12T05:47:04.950Z,100.00
2023-02-12T05:49:31.526Z,100.00
2023-02-12T05:51:58.208Z,100.00
2023-02-12T05:54:24.706Z,100.00
2023-02-12T05:56:51.198Z,100.00
2023-02-12T05:59:19.630Z,100.00
2023-02-12T06:01:47.040Z,100.00
2023-02-12T06:04:19.325Z,100.00
2023-02-12T06:06:45.991Z,100.00
2023-02-12T06:09:13.119Z,100.00
2023-02-12T06:11:39.794Z,100.00
2023-02-12T06:14:06.971Z,100.00
2023-02-12T06:16:34.093Z,100.00
2023-02-12T06:19:01.882Z,100.00
2023-02-12T06:21:28.436Z,100.00
2023-02-12T06:23:54.970Z,100.00
2023-02-12T06:26:21.728Z,100.00
2023-02-12T06:28:48.296Z,100.00
2023-02-12T06:31:22.357Z,100.00
2023-02-12T06:33:49.083Z,100.00
2023-02-12T06:36:15.751Z,100.00
2023-02-12T06:38:42.377Z,100.00
2023-02-12T06:41:40.606Z,100.00
2023-02-12T06:44:16.325Z,100.00
2023-02-12T06:46:43.059Z,100.00
2023-02-12T06:49:10.996Z,100.00
2023-02-12T06:51:37.817Z,100.00
2023-02-12T06:54:04.516Z,100.00
2023-02-12T06:56:31.326Z,100.00
2023-02-12T06:58:58.721Z,100.00
2023-02-12T07:01:26.716Z,100.00
2023-02-12T07:04:00.881Z,100.00
2023-02-12T07:06:27.757Z,100.00
2023-02-12T07:08:55.180Z,100.00
2023-02-12T07:11:25.610Z,100.00
2023-02-12T07:13:52.256Z,100.00
2023-02-12T07:16:18.964Z,100.00
2023-02-12T07:18:45.701Z,100.00
2023-02-12T07:21:12.709Z,100.00
2023-02-12T07:23:39.238Z,100.00
2023-02-12T07:26:07.301Z,100.00
2023-02-12T07:28:34.063Z,100.00
2023-02-12T07:31:06.115Z,100.00
2023-02-12T07:33:32.717Z,100.00
2023-02-12T07:36:02.941Z,100.00
2023-02-12T07:38:29.545Z,100.00
2023-02-12T07:40:56.103Z,100.00
2023-02-12T07:43:22.827Z,100.00
2023-02-12T07:45:49.524Z,100.00
2023-02-12T07:48:16.094Z,100.00
2023-02-12T07:50:42.639Z,100.00
2023-02-12T07:53:09.286Z,100.00
2023-02-12T07:55:35.859Z,100.00
2023-02-12T07:58:02.642Z,100.00
2023-02-12T08:00:29.227Z,100.00
2023-02-12T08:02:55.808Z,100.00
2023-02-12T08:05:22.397Z,100.00
2023-02-12T08:07:49.088Z,100.00
2023-02-12T08:10:15.753Z,100.00
2023-02-12T08:12:42.399Z,100.00
2023-02-12T08:15:09.546Z,100.00
2023-02-12T08:17:36.175Z,100.00
2023-02-12T08:20:02.953Z,100.00
2023-02-12T08:22:29.580Z,100.00
2023-02-12T08:24:56.225Z,100.00
2023-02-12T08:27:22.725Z,100.00
2023-02-12T08:29:49.375Z,100.00
2023-02-12T08:32:16.036Z,100.00
2023-02-12T08:34:42.591Z,100.00
2023-02-12T08:37:09.257Z,100.00
2023-02-12T08:39:37.154Z,100.00
2023-02-12T08:42:03.879Z,100.00
2023-02-12T08:44:32.894Z,100.00
2023-02-12T08:47:02.480Z,100.00
2023-02-12T08:49:29.741Z,100.00
2023-02-12T08:52:02.049Z,100.00
2023-02-12T08:54:29.713Z,100.00
2023-02-12T08:56:57.482Z,100.00
2023-02-12T08:59:24.034Z,100.00
2023-02-12T09:01:51.760Z,99.92
2023-02-12T09:04:20.871Z,99.47
2023-02-12T09:06:47.942Z,100.00
2023-02-12T09:09:14.926Z,100.00
2023-02-12T09:11:42.150Z,99.82
2023-02-12T09:14:12.193Z,99.24
2023-02-12T09:16:38.928Z,99.83
2023-02-12T09:19:05.764Z,99.99
2023-02-12T09:21:32.563Z,100.00
2023-02-12T09:23:59.281Z,99.78
2023-02-12T09:26:26.040Z,100.00
2023-02-12T09:28:52.629Z,100.00
2023-02-12T09:31:23.817Z,100.00
2023-02-12T09:33:53.990Z,99.67
2023-02-12T09:36:23.310Z,100.00
2023-02-12T09:39:00.657Z,99.48
2023-02-12T09:42:00.311Z,99.65
2023-02-12T09:44:39.156Z,99.86
2023-02-12T09:47:23.519Z,99.31
2023-02-12T09:50:26.572Z,98.83
2023-02-12T09:52:54.250Z,98.74
2023-02-12T09:55:21.330Z,98.87
2023-02-12T09:57:48.118Z,97.99
2023-02-12T10:00:38.958Z,97.45
2023-02-12T10:03:13.302Z,97.34
2023-02-12T10:06:02.827Z,97.87
2023-02-12T10:09:07.243Z,97.37
2023-02-12T10:11:36.822Z,98.40
2023-02-12T10:14:22.977Z,97.78
2023-02-12T10:16:59.279Z,96.90
2023-02-12T10:19:47.423Z,95.57
2023-02-12T10:22:28.336Z,95.63
2023-02-12T10:25:01.838Z,95.88
2023-02-12T10:27:55.676Z,94.91
2023-02-12T10:30:26.764Z,96.12
2023-02-12T10:32:58.694Z,96.36
2023-02-12T10:35:25.238Z,95.47
2023-02-12T10:38:16.651Z,95.01
2023-02-12T10:40:44.248Z,94.03
2023-02-12T10:43:13.253Z,94.86
2023-02-12T10:45:41.238Z,94.75
2023-02-12T10:48:08.927Z,93.49
2023-02-12T10:51:02.863Z,93.95
2023-02-12T10:53:38.731Z,92.99
2023-02-12T10:56:11.463Z,92.60
2023-02-12T10:58:50.225Z,92.18
2023-02-12T11:01:20.838Z,92.75
2023-02-12T11:03:47.914Z,92.82
2023-02-12T11:06:19.729Z,92.11
2023-02-12T11:08:46.573Z,93.52
2023-02-12T11:11:21.407Z,92.00
2023-02-12T11:13:58.642Z,91.93
2023-02-12T11:16:55.107Z,90.89
2023-02-12T11:19:26.853Z,90.31
2023-02-12T11:22:04.235Z,88.92
2023-02-12T11:24:32.848Z,89.95
2023-02-12T11:27:15.784Z,90.86
2023-02-12T11:29:43.321Z,90.22
2023-02-12T11:32:18.457Z,89.47
2023-02-12T11:34:47.785Z,88.73
2023-02-12T11:37:36.590Z,89.15
2023-02-12T11:40:05.971Z,88.60
2023-02-12T11:42:36.980Z,88.31
2023-02-12T11:45:06.813Z,88.96
2023-02-12T11:47:34.940Z,87.14
2023-02-12T11:50:07.505Z,89.30
2023-02-12T11:52:35.950Z,88.29
2023-02-12T11:55:05.598Z,88.06
2023-02-12T11:57:49.081Z,87.15
2023-02-12T12:00:20.196Z,86.56
2023-02-12T12:03:12.571Z,87.03
2023-02-12T12:05:45.016Z,87.95
2023-02-12T12:08:21.907Z,86.24
2023-02-12T12:10:54.407Z,87.33
2023-02-12T12:13:27.566Z,87.45
2023-02-12T12:16:11.298Z,86.77
2023-02-12T12:18:46.871Z,87.91
2023-02-12T12:21:28.292Z,87.00
2023-02-12T12:24:11.668Z,87.24
2023-02-12T12:26:50.868Z,87.00
2023-02-12T12:29:47.423Z,86.39
2023-02-12T12:32:14.312Z,86.18
2023-02-12T12:34:43.736Z,85.40
2023-02-12T12:37:13.342Z,85.05
2023-02-12T12:40:04.786Z,85.37
2023-02-12T12:42:51.116Z,85.29
2023-02-12T12:45:51.830Z,84.85
2023-02-12T12:48:24.449Z,85.34
2023-02-12T12:51:18.521Z,85.14
2023-02-12T12:54:03.832Z,85.06
2023-02-12T12:56:42.355Z,84.79
2023-02-12T12:59:46.457Z,85.75
2023-02-12T13:02:28.835Z,85.51
2023-02-12T13:05:01.654Z,84.88
2023-02-12T13:08:06.268Z,84.32
2023-02-12T13:10:34.200Z,85.00
2023-02-12T13:13:12.724Z,84.86
2023-02-12T13:16:26.455Z,85.49
2023-02-12T13:19:10.328Z,85.24
2023-02-12T13:21:59.159Z,85.69
2023-02-12T13:24:39.630Z,84.40
2023-02-12T13:27:07.996Z,83.76
2023-02-12T13:29:59.635Z,84.74
2023-02-12T13:32:34.547Z,85.55
2023-02-12T13:35:01.445Z,84.33
2023-02-12T13:37:45.155Z,84.42
2023-02-12T13:40:18.006Z,85.35
2023-02-12T13:43:23.616Z,84.84
2023-02-12T13:46:14.809Z,86.18
2023-02-12T13:49:06.500Z,85.67
2023-02-12T13:52:08.690Z,86.54
2023-02-12T13:54:54.372Z,85.59
2023-02-12T13:57:24.190Z,86.25
2023-02-12T13:59:55.313Z,86.27
2023-02-12T14:02:34.618Z,86.06
2023-02-12T14:05:24.075Z,85.12
2023-02-12T14:08:01.295Z,84.22
2023-02-12T14:10:30.513Z,84.98
2023-02-12T14:13:19.301Z,84.71
2023-02-12T14:15:49.182Z,83.75
2023-02-12T14:18:29.803Z,83.53
2023-02-12T14:21:11.671Z,82.84
2023-02-12T14:23:44.356Z,82.70
2023-02-12T14:26:21.517Z,82.69
2023-02-12T14:28:57.102Z,82.01
2023-02-12T14:31:26.751Z,81.69
2023-02-12T14:34:05.722Z,81.25
2023-02-12T14:36:32.348Z,81.52
2023-02-12T14:39:25.332Z,83.26
2023-02-12T14:41:55.916Z,82.36
2023-02-12T14:44:22.470Z,82.51
2023-02-12T14:46:52.721Z,82.42
2023-02-12T14:49:33.154Z,82.88
2023-02-12T14:52:16.777Z,81.77
2023-02-12T14:54:57.693Z,82.14
2023-02-12T14:57:33.297Z,82.14
2023-02-12T15:00:06.160Z,82.75
2023-02-12T15:02:35.120Z,82.93
2023-02-12T15:05:07.822Z,82.49
2023-02-12T15:07:48.018Z,83.36
2023-02-12T15:10:19.898Z,83.24
2023-02-12T15:12:52.387Z,83.32
2023-02-12T15:15:25.717Z,83.51
2023-02-12T15:18:06.824Z,84.34
2023-02-12T15:20:45.087Z,83.59
2023-02-12T15:23:30.716Z,83.08
2023-02-12T15:25:57.871Z,82.96
2023-02-12T15:28:33.147Z,83.18
2023-02-12T15:31:05.898Z,82.51
2023-02-12T15:33:33.666Z,82.40
2023-02-12T15:36:01.313Z,83.26
2023-02-12T15:38:37.266Z,83.67
2023-02-12T15:41:07.536Z,84.12
2023-02-12T15:43:35.596Z,83.20
2023-02-12T15:46:05.198Z,82.47
2023-02-12T15:48:35.732Z,83.43
2023-02-12T15:51:26.496Z,84.53
2023-02-12T15:53:53.236Z,84.58
2023-02-12T15:56:22.229Z,85.02
2023-02-12T15:58:53.451Z,86.06
2023-02-12T16:01:23.814Z,86.35
2023-02-12T16:04:01.579Z,87.47
2023-02-12T16:06:29.164Z,87.64
2023-02-12T16:09:05.602Z,88.38
2023-02-12T16:11:32.365Z,88.16
2023-02-12T16:14:04.472Z,88.59
2023-02-12T16:16:48.821Z,88.92
2023-02-12T16:19:18.564Z,88.32
2023-02-12T16:21:45.623Z,88.46
2023-02-12T16:24:25.911Z,87.86
2023-02-12T16:26:52.722Z,87.88
2023-02-12T16:29:19.605Z,88.78
2023-02-12T16:31:59.820Z,89.63
2023-02-12T16:34:38.383Z,90.24
2023-02-12T16:37:36.095Z,89.16
2023-02-12T16:40:13.432Z,89.77
2023-02-12T16:42:56.531Z,89.45
2023-02-12T16:45:26.146Z,89.27
2023-02-12T16:47:59.499Z,88.83
2023-02-12T16:50:27.638Z,89.62
2023-02-12T16:53:01.792Z,90.79
2023-02-12T16:55:28.678Z,90.21
2023-02-12T16:57:55.389Z,89.46
2023-02-12T17:00:22.834Z,89.55
2023-02-12T17:02:49.559Z,89.90
2023-02-12T17:05:16.938Z,90.10
2023-02-12T17:07:43.918Z,90.04
2023-02-12T17:10:14.273Z,89.47
2023-02-12T17:12:47.969Z,89.54
2023-02-12T17:15:27.886Z,89.66
2023-02-12T17:17:54.559Z,90.07
2023-02-12T17:20:21.376Z,90.42
2023-02-12T17:22:50.304Z,91.04
2023-02-12T17:25:17.243Z,92.15
2023-02-12T17:27:44.503Z,91.36
2023-02-12T17:30:18.295Z,90.60
2023-02-12T17:32:45.359Z,90.68
2023-02-12T17:35:24.205Z,90.93
2023-02-12T17:37:56.922Z,91.71
2023-02-12T17:40:31.208Z,91.18
2023-02-12T17:43:01.004Z,90.97
2023-02-12T17:45:38.017Z,91.09
2023-02-12T17:48:14.018Z,92.65
2023-02-12T17:50:54.096Z,93.52
2023-02-12T17:53:34.054Z,92.95
2023-02-12T17:56:11.745Z,92.49
2023-02-12T18:01:37.673Z,91.91
2023-02-12T18:04:11.661Z,92.03
2023-02-12T18:06:41.275Z,91.75
2023-02-12T18:09:16.200Z,91.96
2023-02-12T18:11:45.880Z,91.65
2023-02-12T18:14:15.690Z,91.86
2023-02-12T18:16:47.689Z,93.26
2023-02-12T18:19:17.206Z,94.21
2023-02-12T18:21:48.416Z,93.95
2023-02-12T18:24:27.308Z,93.23
2023-02-12T18:27:00.012Z,93.35
2023-02-12T18:29:27.114Z,94.02
2023-02-12T18:31:55.012Z,94.33
2023-02-12T18:34:22.138Z,94.18
2023-02-12T18:36:49.156Z,93.07
2023-02-12T18:39:16.169Z,92.50
2023-02-12T18:41:42.933Z,92.98
2023-02-12T18:44:09.719Z,93.02
2023-02-12T18:46:36.434Z,92.97
2023-02-12T18:49:04.064Z,92.92
2023-02-12T18:51:33.528Z,93.02
2023-02-12T18:54:01.263Z,92.90
2023-02-12T18:56:32.437Z,93.09
2023-02-12T18:59:00.322Z,93.05
2023-02-12T19:01:28.068Z,93.06
2023-02-12T19:03:59.017Z,93.93
2023-02-12T19:06:29.314Z,94.10
2023-02-12T19:08:57.089Z,93.92
2023-02-12T19:11:24.502Z,93.03
2023-02-12T19:13:51.302Z,92.99
2023-02-12T19:16:18.824Z,93.38
2023-02-12T19:18:48.367Z,93.27
2023-02-12T19:21:15.553Z,93.43
2023-02-12T19:23:42.615Z,94.48
2023-02-12T19:26:11.216Z,94.01
2023-02-12T19:28:38.189Z,93.25
2023-02-12T19:31:15.828Z,94.00
2023-02-12T19:33:43.189Z,94.72
2023-02-12T19:36:10.669Z,94.70
2023-02-12T19:38:37.563Z,93.96
2023-02-12T19:41:09.473Z,93.41
2023-02-12T19:43:36.335Z,93.69
2023-02-12T19:46:10.922Z,94.19
2023-02-12T19:48:37.847Z,94.03
2023-02-12T19:51:04.775Z,93.87
2023-02-12T19:53:31.610Z,94.19
2023-02-12T19:56:04.707Z,94.55
2023-02-12T19:58:31.523Z,94.97
2023-02-12T20:00:58.958Z,94.87
2023-02-12T20:03:25.877Z,94.41
2023-02-12T20:06:10.219Z,93.40
2023-02-12T20:08:37.673Z,94.87
2023-02-12T20:11:11.423Z,94.38
2023-02-12T20:13:38.849Z,94.25
2023-02-12T20:16:07.092Z,94.02
2023-02-12T20:18:34.099Z,94.30
2023-02-12T20:21:01.224Z,94.35
2023-02-12T20:23:27.980Z,94.79
2023-02-12T20:25:54.802Z,95.09
2023-02-12T20:28:22.025Z,95.20
2023-02-12T20:30:48.995Z,94.94
2023-02-12T20:33:15.834Z,95.03
2023-02-12T20:35:46.152Z,94.82
2023-02-12T20:38:13.060Z,95.25
2023-02-12T20:40:39.976Z,94.92
2023-02-12T20:43:06.808Z,95.29
2023-02-12T20:45:36.725Z,95.98
2023-02-12T20:48:03.472Z,96.02
2023-02-12T20:50:30.280Z,96.37
2023-02-12T20:52:59.109Z,95.64
2023-02-12T20:55:25.911Z,95.15
2023-02-12T20:57:55.854Z,95.38
2023-02-12T21:00:22.611Z,95.33
2023-02-12T21:02:49.506Z,95.06
2023-02-12T21:05:16.377Z,95.55
2023-02-12T21:07:43.249Z,96.17
2023-02-12T21:10:13.008Z,95.40
2023-02-12T21:12:39.791Z,95.21
2023-02-12T21:15:07.312Z,95.43
2023-02-12T21:17:36.599Z,95.05
2023-02-12T21:20:03.577Z,95.15
2023-02-12T21:22:30.479Z,94.98
2023-02-12T21:24:57.347Z,95.82
2023-02-12T21:27:24.160Z,95.32
2023-02-12T21:29:50.811Z,95.32
2023-02-12T21:32:17.660Z,96.17
2023-02-12T21:34:44.536Z,96.31
2023-02-12T21:37:11.298Z,96.48
2023-02-12T21:39:38.089Z,96.68
2023-02-12T21:42:05.230Z,97.20
2023-02-12T21:44:32.927Z,97.66
2023-02-12T21:46:59.720Z,97.54
2023-02-12T21:49:26.710Z,97.29
2023-02-12T21:51:57.997Z,98.24
2023-02-12T21:54:25.026Z,98.02
2023-02-12T21:56:51.738Z,97.96
2023-02-12T21:59:18.675Z,98.08
2023-02-12T22:01:49.652Z,97.92
2023-02-12T22:04:16.788Z,98.41
2023-02-12T22:06:48.010Z,98.36
2023-02-12T22:09:16.422Z,99.23
2023-02-12T22:11:43.504Z,99.15
2023-02-12T22:14:12.824Z,99.62
2023-02-12T22:16:39.759Z,99.61
2023-02-12T22:19:06.530Z,99.74
2023-02-12T22:21:35.410Z,100.00
2023-02-12T22:24:03.643Z,100.00
2023-02-12T22:26:30.618Z,100.00
2023-02-12T22:28:59.088Z,100.00
2023-02-12T22:31:28.249Z,100.00
2023-02-12T22:34:00.006Z,100.00
2023-02-12T22:36:26.937Z,100.00
2023-02-12T22:38:55.305Z,100.00
2023-02-12T22:41:22.041Z,100.00
2023-02-12T22:43:48.854Z,100.00
2023-02-12T22:46:15.932Z,100.00
2023-02-12T22:48:42.876Z,100.00
2023-02-12T22:51:10.264Z,100.00
2023-02-12T22:53:37.008Z,100.00
2023-02-12T22:56:04.844Z,100.00
2023-02-12T22:58:31.598Z,99.54
2023-02-12T23:00:58.733Z,100.00
2023-02-12T23:03:25.720Z,100.00
2023-02-12T23:05:52.442Z,100.00
2023-02-12T23:08:19.270Z,99.90
2023-02-12T23:10:45.978Z,99.46
2023-02-12T23:13:24.587Z,99.57
2023-02-12T23:15:55.195Z,99.95
2023-02-12T23:18:22.564Z,99.30
2023-02-12T23:20:49.962Z,99.66
2023-02-12T23:23:17.185Z,99.79
2023-02-12T23:25:44.016Z,100.00
2023-02-12T23:28:11.009Z,100.00
2023-02-12T23:30:38.234Z,100.00
2023-02-12T23:33:05.836Z,100.00
2023-02-12T23:35:32.626Z,100.00
2023-02-12T23:37:59.472Z,100.00
2023-02-12T23:40:26.267Z,100.00
2023-02-12T23:42:52.983Z,100.00
2023-02-12T23:45:19.825Z,100.00
2023-02-12T23:47:46.694Z,100.00
2023-02-12T23:50:13.554Z,100.00
2023-02-12T23:52:40.418Z,100.00
2023-02-12T23:55:07.258Z,100.00
2023-02-12T23:57:34.116Z,100.00
